Edna T. Gattle — WDD2528 — position and weather

sailwx.info

Track history (hours):
 
Tides and Currents Weather Stations Pressure Air Temp Water Temp Dewpoint Dewpoint Depression Visibility Wind Speed Wind Dir Waves Ship Positions

Edna T. Gattle

Owner: Terral RiverService, Inc., Lake Providence, LA. More information available from US FCC via Universal Licensing System and Coast Guard Vessel Documentation Center.

Last reported at 2015-Jan-29 13:25 UTC. Time now 2015-Jan-29 14:25 UTC.
Position N 29°56' W 091°50'.

Length 33 m; draft 2.6 m.

Type: Towing. MMSI: 367116420.

Date/timePositionNaut miles runAvg speedWind from/ knotsBaromVisibWave heightAir tempDewpointWater temp
2015-Jan-29 13:25N 29°56' W 091°50'1 0.2
2015-Jan-29 09:12N 29°56' W 091°50'0 0.0
2015-Jan-29 08:33N 29°56' W 091°50'0 0.0
2015-Jan-29 07:33N 29°56' W 091°50'0 0.0
2015-Jan-29 05:28N 29°56' W 091°50'0 0.0
2015-Jan-29 04:12N 29°56' W 091°50'0 0.0
2015-Jan-29 03:20N 29°56' W 091°50'0 0.0
2015-Jan-29 02:18N 29°56' W 091°50'0 0.0
2015-Jan-29 01:33N 29°56' W 091°50'1 0.1
2015-Jan-28 14:25N 29°56' W 091°49'5 1.4
2015-Jan-28 10:33N 29°50' W 091°50'5 3.9
2015-Jan-28 09:22N 29°46' W 091°47'8 4.0
2015-Jan-28 07:26N 29°46' W 091°39'4 4.8
2015-Jan-28 06:33N 29°44' W 091°34'4 3.7
2015-Jan-28 05:33N 29°42' W 091°31'6 6.3
2015-Jan-28 04:33N 29°39' W 091°24'6 5.9
2015-Jan-28 03:33N 29°39' W 091°17'6 5.9
2015-Jan-28 02:33N 29°44' W 091°13'8 7.6
2015-Jan-28 01:33N 29°47' W 091°21'9 9.0
2015-Jan-28 00:33N 29°54' W 091°27'7 0.2
2015-Jan-26 08:19N 30°00' W 091°29'5 5.4
2015-Jan-26 07:24N 29°56' W 091°28'5 5.3
2015-Jan-26 06:33N 29°52' W 091°25'3 3.3
2015-Jan-26 05:33N 29°49' W 091°23'5 5.5
2015-Jan-26 04:33N 29°45' W 091°18'1 0.7
2015-Jan-26 03:33N 29°46' W 091°18'4 4.1
2015-Jan-26 02:33N 29°44' W 091°13'4 3.5
2015-Jan-26 01:33N 29°40' W 091°14'2 2.0
2015-Jan-26 00:33N 29°42' W 091°13'6 5.5
2015-Jan-25 23:33N 29°46' W 091°18'3 3.3
2015-Jan-25 22:33N 29°45' W 091°14'5 5.2
2015-Jan-25 21:33N 29°41' W 091°10'3 2.6
2015-Jan-25 20:33N 29°40' W 091°08'0 0.0
2015-Jan-25 19:33N 29°40' W 091°08'0 0.0
2015-Jan-25 18:33N 29°40' W 091°08'0 0.1
2015-Jan-25 17:33N 29°40' W 091°08'0 0.0
2015-Jan-25 16:33N 29°40' W 091°08'0 0.0
2015-Jan-25 15:33N 29°40' W 091°08'0 0.0
2015-Jan-25 14:33N 29°40' W 091°08'0 0.0
2015-Jan-25 13:33N 29°40' W 091°08'0 0.1
2015-Jan-25 12:33N 29°40' W 091°08'0 0.0
2015-Jan-25 11:33N 29°40' W 091°08'0 0.0
2015-Jan-25 10:33N 29°40' W 091°08'0 0.0
2015-Jan-25 09:33N 29°40' W 091°08'0 0.0
2015-Jan-25 08:33N 29°40' W 091°08'0 0.0
2015-Jan-25 07:33N 29°40' W 091°08'0 0.0
2015-Jan-25 06:33N 29°40' W 091°08'0 0.0
2015-Jan-25 05:33N 29°40' W 091°08'0 0.0
2015-Jan-25 04:33N 29°40' W 091°08'0 0.0
2015-Jan-25 03:33N 29°40' W 091°08'0 0.0
2015-Jan-25 02:33N 29°40' W 091°08'0 0.0
2015-Jan-25 01:33N 29°40' W 091°08'0 0.0
2015-Jan-25 00:33N 29°40' W 091°08'0 0.0
2015-Jan-24 23:33N 29°40' W 091°08'0 0.1
2015-Jan-24 22:33N 29°40' W 091°08'0 0.0
2015-Jan-24 21:33N 29°40' W 091°08'0 0.0
2015-Jan-24 20:33N 29°40' W 091°08'0 0.0
2015-Jan-24 19:33N 29°40' W 091°08'0 0.0
2015-Jan-24 18:33N 29°40' W 091°08'0 0.0
2015-Jan-24 17:33N 29°40' W 091°08'0 0.0
2015-Jan-24 16:33N 29°40' W 091°08'0 0.0
2015-Jan-24 15:33N 29°40' W 091°08'0 0.0
2015-Jan-24 14:34N 29°40' W 091°08'0 0.0
2015-Jan-24 13:33N 29°40' W 091°08'0 0.0
2015-Jan-24 12:33N 29°40' W 091°08'0 0.0
2015-Jan-24 11:33N 29°40' W 091°08'0 0.0
2015-Jan-24 10:33N 29°40' W 091°08'0 0.0
2015-Jan-24 09:33N 29°40' W 091°08'0 0.0
2015-Jan-24 08:33N 29°40' W 091°08'0 0.0
2015-Jan-24 07:33N 29°40' W 091°08'0 0.0
2015-Jan-24 06:33N 29°40' W 091°08'0 0.0
2015-Jan-24 05:33N 29°40' W 091°08'0 0.0
2015-Jan-24 04:34N 29°40' W 091°08'0 0.0
2015-Jan-24 03:33N 29°40' W 091°08'0 0.0
2015-Jan-24 02:33N 29°40' W 091°08'0 0.0
2015-Jan-24 01:33N 29°40' W 091°08'0 0.0
2015-Jan-24 00:33N 29°40' W 091°08'0 0.0
2015-Jan-23 23:33N 29°40' W 091°08'0 0.1
2015-Jan-23 22:33N 29°40' W 091°08'0 0.0
2015-Jan-23 21:33N 29°40' W 091°08'0 0.0
2015-Jan-23 20:33N 29°40' W 091°08'0 0.0
2015-Jan-23 19:33N 29°40' W 091°08'0 0.1
2015-Jan-23 18:34N 29°40' W 091°08'0 0.1
2015-Jan-23 17:33N 29°40' W 091°08'0 0.0
2015-Jan-23 16:33N 29°40' W 091°08'0 0.0
2015-Jan-23 15:34N 29°40' W 091°08'0 0.0
2015-Jan-23 14:34N 29°40' W 091°08'0 0.0
2015-Jan-23 13:33N 29°40' W 091°08'0 0.0
2015-Jan-23 12:34N 29°40' W 091°08'0 0.0
2015-Jan-23 11:33N 29°40' W 091°08'0 0.0
2015-Jan-23 10:33N 29°40' W 091°08'0 0.0
2015-Jan-23 09:33N 29°40' W 091°08'0 0.0
2015-Jan-23 08:33N 29°40' W 091°08'0 0.0
2015-Jan-23 07:33N 29°40' W 091°08'0 0.0
2015-Jan-23 06:34N 29°40' W 091°08'0 0.0
2015-Jan-23 05:34N 29°40' W 091°08'0 0.0
2015-Jan-23 04:33N 29°40' W 091°08'0 0.0
2015-Jan-23 03:33N 29°40' W 091°08'0 0.0
2015-Jan-23 02:33N 29°40' W 091°08'0 0.0
2015-Jan-23 01:33N 29°40' W 091°08'0 0.0
2015-Jan-23 00:33N 29°40' W 091°08'0 0.0
2015-Jan-22 23:33N 29°40' W 091°08'0 0.1
2015-Jan-22 22:33N 29°40' W 091°08'0 0.0
2015-Jan-22 21:33N 29°40' W 091°08'0 0.1
2015-Jan-22 20:33N 29°40' W 091°08'3 2.8
2015-Jan-22 19:33N 29°41' W 091°11'3 3.4
2015-Jan-22 18:33N 29°44' W 091°13'0 0.0
2015-Jan-22 17:33N 29°44' W 091°13'5 5.2
2015-Jan-22 16:33N 29°45' W 091°19'9 8.8
2015-Jan-22 15:32N 29°52' W 091°25'9 8.8
2015-Jan-22 14:31N 30°01' W 091°29'  
Track history (hours):
 
Tides and Currents Weather Stations Pressure Air Temp Water Temp Dewpoint Dewpoint Depression Visibility Wind Speed Wind Dir Waves Ship Positions

Edna T. Gattle

Owner: Terral RiverService, Inc., Lake Providence, LA. More information available from US FCC via Universal Licensing System and Coast Guard Vessel Documentation Center.

Last reported at 2015-Jan-29 13:25 UTC. Time now 2015-Jan-29 14:25 UTC.
Position N 29°56' W 091°50'.

Length 33 m; draft 2.6 m.

Type: Towing. MMSI: 367116420.

Date/timePositionNaut miles runAvg speedWind from/ knotsBaromVisibWave heightAir tempDewpointWater temp
2015-Jan-29 13:25N 29°56' W 091°50'1 0.2
2015-Jan-29 09:12N 29°56' W 091°50'0 0.0
2015-Jan-29 08:33N 29°56' W 091°50'0 0.0
2015-Jan-29 07:33N 29°56' W 091°50'0 0.0
2015-Jan-29 05:28N 29°56' W 091°50'0 0.0
2015-Jan-29 04:12N 29°56' W 091°50'0 0.0
2015-Jan-29 03:20N 29°56' W 091°50'0 0.0
2015-Jan-29 02:18N 29°56' W 091°50'0 0.0
2015-Jan-29 01:33N 29°56' W 091°50'1 0.1
2015-Jan-28 14:25N 29°56' W 091°49'5 1.4
2015-Jan-28 10:33N 29°50' W 091°50'5 3.9
2015-Jan-28 09:22N 29°46' W 091°47'8 4.0
2015-Jan-28 07:26N 29°46' W 091°39'4 4.8
2015-Jan-28 06:33N 29°44' W 091°34'4 3.7
2015-Jan-28 05:33N 29°42' W 091°31'6 6.3
2015-Jan-28 04:33N 29°39' W 091°24'6 5.9
2015-Jan-28 03:33N 29°39' W 091°17'6 5.9
2015-Jan-28 02:33N 29°44' W 091°13'8 7.6
2015-Jan-28 01:33N 29°47' W 091°21'9 9.0
2015-Jan-28 00:33N 29°54' W 091°27'7 0.2
2015-Jan-26 08:19N 30°00' W 091°29'5 5.4
2015-Jan-26 07:24N 29°56' W 091°28'5 5.3
2015-Jan-26 06:33N 29°52' W 091°25'3 3.3
2015-Jan-26 05:33N 29°49' W 091°23'5 5.5
2015-Jan-26 04:33N 29°45' W 091°18'1 0.7
2015-Jan-26 03:33N 29°46' W 091°18'4 4.1
2015-Jan-26 02:33N 29°44' W 091°13'4 3.5
2015-Jan-26 01:33N 29°40' W 091°14'2 2.0
2015-Jan-26 00:33N 29°42' W 091°13'6 5.5
2015-Jan-25 23:33N 29°46' W 091°18'3 3.3
2015-Jan-25 22:33N 29°45' W 091°14'5 5.2
2015-Jan-25 21:33N 29°41' W 091°10'3 2.6
2015-Jan-25 20:33N 29°40' W 091°08'0 0.0
2015-Jan-25 19:33N 29°40' W 091°08'0 0.0
2015-Jan-25 18:33N 29°40' W 091°08'0 0.1
2015-Jan-25 17:33N 29°40' W 091°08'0 0.0
2015-Jan-25 16:33N 29°40' W 091°08'0 0.0
2015-Jan-25 15:33N 29°40' W 091°08'0 0.0
2015-Jan-25 14:33N 29°40' W 091°08'0 0.0
2015-Jan-25 13:33N 29°40' W 091°08'0 0.1
2015-Jan-25 12:33N 29°40' W 091°08'0 0.0
2015-Jan-25 11:33N 29°40' W 091°08'0 0.0
2015-Jan-25 10:33N 29°40' W 091°08'0 0.0
2015-Jan-25 09:33N 29°40' W 091°08'0 0.0
2015-Jan-25 08:33N 29°40' W 091°08'0 0.0
2015-Jan-25 07:33N 29°40' W 091°08'0 0.0
2015-Jan-25 06:33N 29°40' W 091°08'0 0.0
2015-Jan-25 05:33N 29°40' W 091°08'0 0.0
2015-Jan-25 04:33N 29°40' W 091°08'0 0.0
2015-Jan-25 03:33N 29°40' W 091°08'0 0.0
2015-Jan-25 02:33N 29°40' W 091°08'0 0.0
2015-Jan-25 01:33N 29°40' W 091°08'0 0.0
2015-Jan-25 00:33N 29°40' W 091°08'0 0.0
2015-Jan-24 23:33N 29°40' W 091°08'0 0.1
2015-Jan-24 22:33N 29°40' W 091°08'0 0.0
2015-Jan-24 21:33N 29°40' W 091°08'0 0.0
2015-Jan-24 20:33N 29°40' W 091°08'0 0.0
2015-Jan-24 19:33N 29°40' W 091°08'0 0.0
2015-Jan-24 18:33N 29°40' W 091°08'0 0.0
2015-Jan-24 17:33N 29°40' W 091°08'0 0.0
2015-Jan-24 16:33N 29°40' W 091°08'0 0.0
2015-Jan-24 15:33N 29°40' W 091°08'0 0.0
2015-Jan-24 14:34N 29°40' W 091°08'0 0.0
2015-Jan-24 13:33N 29°40' W 091°08'0 0.0
2015-Jan-24 12:33N 29°40' W 091°08'0 0.0
2015-Jan-24 11:33N 29°40' W 091°08'0 0.0
2015-Jan-24 10:33N 29°40' W 091°08'0 0.0
2015-Jan-24 09:33N 29°40' W 091°08'0 0.0
2015-Jan-24 08:33N 29°40' W 091°08'0 0.0
2015-Jan-24 07:33N 29°40' W 091°08'0 0.0
2015-Jan-24 06:33N 29°40' W 091°08'0 0.0
2015-Jan-24 05:33N 29°40' W 091°08'0 0.0
2015-Jan-24 04:34N 29°40' W 091°08'0 0.0
2015-Jan-24 03:33N 29°40' W 091°08'0 0.0
2015-Jan-24 02:33N 29°40' W 091°08'0 0.0
2015-Jan-24 01:33N 29°40' W 091°08'0 0.0
2015-Jan-24 00:33N 29°40' W 091°08'0 0.0
2015-Jan-23 23:33N 29°40' W 091°08'0 0.1
2015-Jan-23 22:33N 29°40' W 091°08'0 0.0
2015-Jan-23 21:33N 29°40' W 091°08'0 0.0
2015-Jan-23 20:33N 29°40' W 091°08'0 0.0
2015-Jan-23 19:33N 29°40' W 091°08'0 0.1
2015-Jan-23 18:34N 29°40' W 091°08'0 0.1
2015-Jan-23 17:33N 29°40' W 091°08'0 0.0
2015-Jan-23 16:33N 29°40' W 091°08'0 0.0
2015-Jan-23 15:34N 29°40' W 091°08'0 0.0
2015-Jan-23 14:34N 29°40' W 091°08'0 0.0
2015-Jan-23 13:33N 29°40' W 091°08'0 0.0
2015-Jan-23 12:34N 29°40' W 091°08'0 0.0
2015-Jan-23 11:33N 29°40' W 091°08'0 0.0
2015-Jan-23 10:33N 29°40' W 091°08'0 0.0
2015-Jan-23 09:33N 29°40' W 091°08'0 0.0
2015-Jan-23 08:33N 29°40' W 091°08'0 0.0
2015-Jan-23 07:33N 29°40' W 091°08'0 0.0
2015-Jan-23 06:34N 29°40' W 091°08'0 0.0
2015-Jan-23 05:34N 29°40' W 091°08'0 0.0
2015-Jan-23 04:33N 29°40' W 091°08'0 0.0
2015-Jan-23 03:33N 29°40' W 091°08'0 0.0
2015-Jan-23 02:33N 29°40' W 091°08'0 0.0
2015-Jan-23 01:33N 29°40' W 091°08'0 0.0
2015-Jan-23 00:33N 29°40' W 091°08'0 0.0
2015-Jan-22 23:33N 29°40' W 091°08'0 0.1
2015-Jan-22 22:33N 29°40' W 091°08'0 0.0
2015-Jan-22 21:33N 29°40' W 091°08'0 0.1
2015-Jan-22 20:33N 29°40' W 091°08'3 2.8
2015-Jan-22 19:33N 29°41' W 091°11'3 3.4
2015-Jan-22 18:33N 29°44' W 091°13'0 0.0
2015-Jan-22 17:33N 29°44' W 091°13'5 5.2
2015-Jan-22 16:33N 29°45' W 091°19'9 8.8
2015-Jan-22 15:32N 29°52' W 091°25'9 8.8
2015-Jan-22 14:31N 30°01' W 091°29'  

Dump ship's entire track history